Ida, LA (71044)

11:38 AM CDT on July 03, 2015 (GMT -0500)
Rambo Community | | Change Station
CLOSE
Current Station
Personal Weather Station
Location: Bivins, TX
Elevation: 272 ft
Nearby Weather Stations

Elev 272 ft 32.90 °N, 94.10 °W | Updated 3 minutes ago

Partly Cloudy
Partly Cloudy
84.1 °F
Feels Like 94 °F
N
0.0
Wind Variable Wind from SE
Gusts 0.0 mph

Today
High -- | Low -- °F
--% Chance of Precip.
Yesterday
High -- | Low -- °F
Precip. -- in
6:11 AM 8:28 PM
Full, 97% visible
Pressure 29.98 in
Visibility 10.0 miles
Clouds Clear
Heat Index 94 °F
Dew Point 77 °F
Humidity 79%
Rainfall 0.00 in
Snow Depth Not available.
UV 9 out of 12
Pollen 3.50 out of 12
Air Quality Not available.
Flu Activity Not available.
METAR KDTN 031553Z 23014KT 10SM CLR 29/22 A2999 RMK AO2 SLP151 T02940222

More Conditions Fewer Conditions

Pressure 29.98 in
Visibility 10.0 miles
Clouds Clear
Heat Index 94 °F
Dew Point 77 °F
Humidity 79%
Rainfall 0.00 in
Snow Depth Not available.
UV 9 out of 12
Pollen 3.50 out of 12
Air Quality Not available.
Flu Activity Not available.
METAR KDTN 031553Z 23014KT 10SM CLR 29/22 A2999 RMK AO2 SLP151 T02940222

More Conditions Fewer Conditions

10-Day Weather Forecast

×

Almanac

Astronomy

Jul. 03, 2015 Rise Set
Actual Time
Civil Twilight
Nautical Twilight
Astronomical Twilight
Moon
Length of Visible Light
Length of Day
Tomorrow will be .
, % of the Moon is Illuminated

Today's Extremes

State Highs State Lows

Community

WunderPhotos

Upload Photos

1,834,697 photos uploaded!

WunderBlogs® & News

Nearby

Air Quality

  Air Quality AQ Index Pollutant
Not available.

Snow Depth

Station Depth Elevation

Earthquake Activity

City Distance Mag. Time & Date
Minimum magnitude displayed is 2.5.

Coastal Water Temperatures

Place Temperature

Stations

Nearby Weather Stations

Station Location Temp. Windchill Dew Point Humidity Wind Precip. Elev Updated Type
                   
Flood Warning
Statement as of 11:18 AM CDT on July 02, 2015

The Flood Warning continues for
the Red River at Coushatta, Louisiana.
* Until Monday afternoon... or until the warning is cancelled.
* At 1000 am Thursday the stage was 32.3 feet.
* Minor flooding is occurring and minor flooding is forecast.
* Flood stage is 31 feet.
* Forecast... expect little change through this Thursday afternoon
as the river crests at 32.3 feet. Also the river will recede to
near 32 feet by Friday morning.
* Impact... at 33.0 feet... moderate flooding occurs. Severe backwater
flooding occurs from the confluence of the Red River with Loggy
Bayou through the Lower Flat river and Red Chute bayou in southern
Bossier Parish. Cattle and equipment should be moved to higher
ground away from levees.


Lat... Lon 3220 9342 3192 9321 3192 9330 3204 9342 3220 9350